Latest Weather Observations for Forbes

IDN60801

Issued at 1:02 pm EST Saturday 30 April 2016 (issued every 30 minutes, with the page automatically refreshed every 10 minutes)

About weather observations | Map of weather stations | Latest weather observations for NSW | Other Formats
Station Details ID: 065103 Name: FORBES AIRPORT AWS Lat: -33.36 Lon: 147.92 Height: 230.4 m
Data from the previous 72 hours. | See also: Recent months at Forbes
Date/Time
EST
Temp
°C
App
Temp
°C
Dew
Point
Rel
Hum
%
Delta-T
°C
Wind Press
QNH
hPa
Press
MSL
hPa
Rain
since 9 am
mm
Dir
 
Spd
km/h
Gust
km/h
Spd
kts
Gust
kts
30/01:00pm 21.7 21.2 16.9 74 3.0 NW 15 20 8 11 1017.1 1016.7 0.0
30/12:30pm 21.6 21.2 17.2 76 2.7 WNW 15 19 8 10 1017.5 1017.1 0.0
30/12:00pm 21.0 20.6 17.2 79 2.3 WNW 15 19 8 10 1018.1 1017.6 0.0
30/11:30am 20.6 20.6 17.2 81 2.1 NNW 13 19 7 10 1018.5 1018.0 0.0
30/11:00am 20.5 20.1 17.1 81 2.1 NW 15 19 8 10 1018.9 1018.4 0.0
30/10:30am 19.5 18.9 17.5 88 1.2 WNW 17 22 9 12 1019.1 1018.6 0.0
30/10:00am 19.1 18.8 17.4 90 1.0 WNW 15 19 8 10 1019.4 1019.0 0.0
30/09:30am 18.4 18.0 17.2 93 0.7 WNW 15 19 8 10 1019.4 1019.0 0.0
30/09:00am 18.2 18.1 17.0 93 0.7 NW 13 17 7 9 1019.3 1018.8 26.0
30/08:30am 17.8 17.8 17.2 96 0.4 NW 13 19 7 10 1019.3 1018.8 26.0
30/08:00am 17.4 17.2 16.6 95 0.5 NNW 13 19 7 10 1018.7 1018.2 26.0
30/07:30am 17.3 15.7 16.5 95 0.5 N 20 24 11 13 1018.2 1017.7 26.0
30/07:00am 17.0 14.6 16.4 96 0.4 NNE 24 32 13 17 1017.3 1016.9 26.0
30/06:30am 16.9 15.4 16.3 96 0.4 N 19 24 10 13 1018.1 1017.6 26.0
30/06:00am 16.7 16.3 16.2 97 0.3 NNW 13 17 7 9 1018.6 1018.1 26.0
30/05:30am 16.7 17.1 16.2 97 0.3 N 9 13 5 7 1018.2 1017.7 26.0
30/05:00am 16.8 17.6 16.3 97 0.3 NNE 7 11 4 6 1018.0 1017.5 25.8
30/04:30am 16.9 17.0 16.4 97 0.3 N 11 17 6 9 1017.7 1017.3 25.8
30/04:00am 17.0 15.6 16.5 97 0.3 NNE 19 24 10 13 1017.3 1016.9 25.8
30/03:30am 17.2 15.8 16.9 98 0.2 NNE 20 28 11 15 1017.3 1016.9 25.8
30/03:00am 17.3 15.9 17.1 99 0.1 NNE 20 26 11 14 1017.3 1016.9 25.2
30/02:30am 17.4 16.3 17.2 99 0.1 NNE 19 24 10 13 1018.0 1017.5 24.0
30/02:00am 17.4 16.3 17.2 99 0.1 NNE 19 22 10 12 1018.6 1018.1 23.0
30/01:30am 17.3 17.3 17.1 99 0.1 NNE 13 17 7 9 1018.8 1018.3 22.2
30/01:00am 17.2 17.9 17.0 99 0.1 NNE 9 11 5 6 1018.6 1018.1 21.8
30/12:30am 17.3 18.6 17.1 99 0.1 NE 6 7 3 4 1019.1 1018.6 21.2
30/12:00am 17.3 17.3 17.1 99 0.1 NNE 13 15 7 8 1019.2 1018.7 20.4
 
Date/Time
EST
Temp
°C
App
Temp
°C
Dew
Point
Rel
Hum
%
Delta-T
°C
Wind Press
QNH
hPa
Press
MSL
hPa
Rain
since 9 am
mm
Dir
 
Spd
km/h
Gust
km/h
Spd
kts
Gust
kts
29/11:30pm 17.2 17.1 17.0 99 0.1 NNE 13 17 7 9 1019.4 1019.0 19.8
29/11:00pm 17.2 16.7 17.0 99 0.1 NNE 15 19 8 10 1019.8 1019.4 18.8
29/10:30pm 17.4 18.1 17.1 98 0.2 NE 9 13 5 7 1020.1 1019.7 16.2
29/10:00pm 17.2 16.4 17.0 99 0.1 ENE 17 20 9 11 1019.6 1019.2 16.0
29/09:30pm 17.1 16.2 16.8 98 0.2 NE 17 19 9 10 1019.8 1019.4 16.0
29/09:00pm 16.9 17.4 16.6 98 0.2 ENE 9 13 5 7 1019.8 1019.4 15.8
29/08:30pm 16.9 17.0 16.6 98 0.2 ENE 11 13 6 7 1020.1 1019.7 15.6
29/08:00pm 17.1 18.0 16.6 97 0.3 N 7 15 4 8 1020.2 1019.8 13.2
29/07:30pm 17.2 17.2 16.2 94 0.6 SSE 11 17 6 9 1019.6 1019.2 9.8
29/07:00pm 17.3 15.8 16.3 94 0.6 S 19 24 10 13 1019.1 1018.6 9.2
29/06:30pm 17.6 16.5 16.3 92 0.8 S 17 22 9 12 1019.5 1019.1 7.2
29/06:00pm 18.2 18.4 16.7 91 0.9 SSW 11 15 6 8 1019.2 1018.7 6.0
29/05:30pm 18.4 19.2 17.4 94 0.6 SSW 9 13 5 7 1019.0 1018.5 5.8
29/05:00pm 18.2 17.8 17.2 94 0.6 WSW 15 17 8 9 1018.6 1018.1 5.8
29/04:30pm 18.2 15.0 17.2 94 0.6 W 30 44 16 24 1018.4 1017.9 5.4
29/04:17pm 18.9 14.2 16.9 88 1.2 W 37 48 20 26 1018.4 1017.9 1.6
29/04:00pm 22.3 18.6 16.1 68 3.8 N 30 39 16 21 1016.9 1016.5 0.4
29/03:30pm 25.9 22.5 13.7 47 7.3 N 24 30 13 16 1016.7 1016.3 0.0
29/03:00pm 25.5 21.7 13.7 48 7.0 N 26 35 14 19 1016.9 1016.5 0.0
29/02:30pm 25.5 21.0 13.7 48 7.0 N 30 39 16 21 1016.8 1016.4 0.0
29/02:00pm 25.5 20.9 13.4 47 7.1 N 30 39 16 21 1017.0 1016.6 0.0
29/01:30pm 25.4 20.7 13.3 47 7.1 N 30 39 16 21 1016.8 1016.4 0.0
29/01:00pm 25.4 20.7 13.3 47 7.1 N 30 43 16 23 1017.3 1016.9 0.0
29/12:30pm 25.0 20.3 13.2 48 6.9 N 30 41 16 22 1018.0 1017.5 0.0
29/12:00pm 23.8 19.0 12.8 50 6.4 N 30 39 16 21 1018.8 1018.3 0.0
29/11:30am 24.5 19.1 12.8 48 6.8 N 33 41 18 22 1019.6 1019.2 0.0
29/11:00am 24.4 18.3 13.0 49 6.6 N 37 50 20 27 1019.9 1019.5 0.0
29/10:30am 23.5 18.1 12.8 51 6.2 N 33 43 18 23 1020.4 1020.0 0.0
29/10:00am 23.0 17.3 12.9 53 5.8 N 35 46 19 25 1020.7 1020.3 0.0
29/09:30am 22.9 17.4 12.5 52 6.0 N 33 44 18 24 1020.9 1020.5 0.0
29/09:00am 21.9 17.3 11.0 50 6.1 NNE 26 35 14 19 1020.9 1020.5 0.0
29/08:30am 20.3 16.4 9.5 50 5.8 NNE 20 26 11 14 1021.3 1020.9 0.0
29/08:00am 19.0 15.2 9.2 53 5.2 NE 19 22 10 12 1021.0 1020.6 0.0
29/07:30am 16.5 13.4 9.0 61 3.9 NE 15 17 8 9 1021.2 1020.8 0.0
29/07:00am 14.3 11.8 8.0 66 3.2 NNE 11 15 6 8 1021.3 1020.9 0.0
29/06:30am 14.7 12.6 8.2 65 3.3 NNE 9 11 5 6 1020.9 1020.5 0.0
29/06:00am 14.4 11.9 8.1 66 3.2 NNE 11 13 6 7 1020.6 1020.2 0.0
29/05:30am 14.0 11.9 8.2 68 2.9 NNE 9 11 5 6 1020.5 1020.1 0.0
29/05:00am 13.3 11.5 7.3 67 2.9 NNE 6 7 3 4 1020.4 1020.0 0.0
29/04:30am 13.9 13.4 7.7 66 3.1 CALM 0 0 0 0 1020.3 1019.9 0.0
29/04:00am 14.4 14.0 8.1 66 3.2 CALM 0 4 0 2 1020.0 1019.6 0.0
29/03:30am 15.1 13.0 8.3 64 3.5 NE 9 9 5 5 1020.1 1019.7 0.0
29/03:00am 14.3 12.2 8.3 67 3.0 ENE 9 9 5 5 1020.4 1020.0 0.0
29/02:30am 15.0 13.0 8.5 65 3.3 NNE 9 13 5 7 1020.7 1020.3 0.0
29/02:00am 14.8 13.3 8.5 66 3.2 N 6 9 3 5 1021.0 1020.6 0.0
29/01:30am 15.9 13.6 9.1 64 3.5 N 11 13 6 7 1021.0 1020.6 0.0
29/01:00am 16.6 14.9 9.8 64 3.6 NNE 9 11 5 6 1021.0 1020.6 0.0
29/12:30am 15.5 14.4 8.5 63 3.6 NE 4 7 2 4 1021.0 1020.6 0.0
29/12:00am 16.0 14.6 9.0 63 3.6 ENE 6 7 3 4 1021.1 1020.7 0.0
 
Date/Time
EST
Temp
°C
App
Temp
°C
Dew
Point
Rel
Hum
%
Delta-T
°C
Wind Press
QNH
hPa
Press
MSL
hPa
Rain
since 9 am
mm
Dir
 
Spd
km/h
Gust
km/h
Spd
kts
Gust
kts
28/11:30pm 16.4 14.9 9.3 63 3.7 NNE 7 9 4 5 1021.3 1020.9 0.0
28/11:00pm 16.7 15.3 9.4 62 3.8 NNE 7 9 4 5 1021.6 1021.2 0.0
28/10:30pm 16.4 15.0 8.9 61 3.9 NNE 6 7 3 4 1021.7 1021.3 0.0
28/10:00pm 17.2 16.8 9.6 61 4.0 NE 2 6 1 3 1021.7 1021.3 0.0
28/09:30pm 16.9 16.3 8.8 59 4.2 NE 2 7 1 4 1021.8 1021.4 0.0
28/09:00pm 18.9 16.6 10.5 58 4.6 NNE 13 15 7 8 1021.5 1021.1 0.0
28/08:30pm 19.1 16.8 10.4 57 4.7 NNE 13 15 7 8 1021.3 1020.9 0.0
28/08:00pm 18.3 15.7 9.4 56 4.7 NNE 13 13 7 7 1021.2 1020.8 0.0
28/07:30pm 19.5 17.1 10.0 54 5.1 NNE 13 13 7 7 1021.1 1020.7 0.0
28/07:00pm 20.8 18.1 10.3 51 5.7 NNE 15 17 8 9 1020.8 1020.4 0.0
28/06:30pm 21.9 19.7 10.7 49 6.2 NNE 13 15 7 8 1020.6 1020.2 0.0
28/06:00pm 22.3 19.9 10.1 46 6.7 NNE 13 15 7 8 1020.6 1020.2 0.0
28/05:30pm 23.7 21.5 10.7 44 7.3 N 13 15 7 8 1020.3 1019.9 0.0
28/05:00pm 24.8 21.8 10.7 41 7.9 N 17 22 9 12 1020.1 1019.7 0.0
28/04:30pm 25.4 21.9 10.8 40 8.3 N 20 26 11 14 1020.1 1019.7 0.0
28/04:00pm 25.5 22.5 10.5 39 8.4 N 17 22 9 12 1020.2 1019.8 0.0
28/03:30pm 26.3 23.3 10.5 37 8.9 N 17 24 9 13 1020.3 1019.9 0.0
28/03:00pm 26.0 22.5 10.2 37 8.9 NNW 19 32 10 17 1020.4 1020.0 0.0
28/02:30pm 27.2 22.9 10.8 36 9.4 N 24 37 13 20 1020.4 1020.0 0.0
28/02:00pm 26.1 21.4 10.7 38 8.7 N 26 37 14 20 1020.7 1020.3 0.0
28/01:30pm 25.7 21.4 10.7 39 8.5 N 24 37 13 20 1021.0 1020.6 0.0
28/01:00pm 26.9 21.3 11.4 38 8.9 N 32 39 17 21 1021.4 1021.0 0.0
28/12:30pm 26.4 21.7 10.5 37 9.0 N 26 35 14 19 1021.8 1021.4 0.0
28/12:00pm 25.5 20.8 12.0 43 7.8 N 28 39 15 21 1022.2 1021.8 0.0
28/11:30am 25.3 20.7 12.2 44 7.6 NNW 28 35 15 19 1022.7 1022.2 0.0
28/11:00am 25.2 20.3 12.4 45 7.4 NNW 30 39 16 21 1023.1 1022.6 0.0
28/10:30am 24.2 18.9 12.5 48 6.8 NNW 32 39 17 21 1023.4 1023.0 0.0
28/10:00am 23.5 18.1 12.2 49 6.5 NNW 32 43 17 23 1023.7 1023.3 0.0
28/09:30am 22.8 17.8 12.1 51 6.1 NNW 30 37 16 20 1023.9 1023.5 0.0
28/09:00am 22.1 18.0 11.5 51 5.9 N 24 30 13 16 1023.9 1023.5 0.0
28/08:30am 20.1 17.1 10.5 54 5.3 N 17 22 9 12 1023.8 1023.4 0.0
28/08:00am 17.5 14.9 9.4 59 4.3 NE 13 20 7 11 1023.6 1023.2 0.0
28/07:30am 13.6 11.1 8.2 70 2.7 NE 11 13 6 7 1023.5 1023.1 0.0
28/07:00am 9.9 8.8 4.9 71 2.3 CALM 0 0 0 0 1023.1 1022.6 0.0
28/06:30am 11.0 8.6 7.1 77 1.9 E 9 9 5 5 1022.7 1022.2 0.0
28/06:00am 10.6 9.6 5.8 72 2.2 CALM 0 0 0 0 1022.6 1022.1 0.0
28/05:30am 10.7 9.7 5.7 71 2.3 CALM 0 6 0 3 1022.7 1022.2 0.0
28/05:00am 11.0 9.1 6.6 74 2.1 ESE 6 7 3 4 1022.5 1022.0 0.0
28/04:30am 11.2 8.6 6.3 72 2.3 E 9 11 5 6 1022.3 1021.9 0.0
28/04:00am 10.3 7.6 5.7 73 2.1 E 9 9 5 5 1022.3 1021.9 0.0
28/03:30am 10.8 9.1 5.8 71 2.3 SSW 4 6 2 3 1022.2 1021.8 0.0
28/03:00am 11.3 9.1 6.0 70 2.5 SW 7 7 4 4 1022.1 1021.7 0.0
28/02:30am 11.7 10.0 6.0 68 2.7 SSE 4 9 2 5 1022.2 1021.8 0.0
28/02:00am 12.4 11.5 6.2 66 3.0 CALM 0 0 0 0 1022.6 1022.1 0.0
28/01:30am 12.7 11.7 5.8 63 3.3 CALM 0 0 0 0 1022.3 1021.9 0.0
28/01:00am 13.6 13.0 7.4 66 3.1 CALM 0 0 0 0 1022.1 1021.7 0.0
28/12:30am 13.5 12.7 6.4 62 3.4 CALM 0 0 0 0 1022.2 1021.8 0.0
28/12:00am 13.7 12.8 6.1 60 3.7 CALM 0 0 0 0 1021.9 1021.5 0.0
 
Date/Time
EST
Temp
°C
App
Temp
°C
Dew
Point
Rel
Hum
%
Delta-T
°C
Wind Press
QNH
hPa
Press
MSL
hPa
Rain
since 9 am
mm
Dir
 
Spd
km/h
Gust
km/h
Spd
kts
Gust
kts
27/11:30pm 13.9 13.1 6.5 61 3.6 CALM 0 4 0 2 1022.0 1021.6 0.0
27/11:00pm 13.6 12.7 6.0 60 3.6 CALM 0 0 0 0 1022.2 1021.8 0.0
27/10:30pm 14.4 12.3 6.5 59 3.9 NE 7 7 4 4 1022.3 1021.9 0.0
27/10:00pm 14.0 13.1 5.9 58 3.9 CALM 0 0 0 0 1022.7 1022.2 0.0
27/09:30pm 14.9 13.0 6.5 57 4.1 E 6 7 3 4 1022.8 1022.3 0.0
27/09:00pm 15.7 13.5 6.4 54 4.6 NE 7 9 4 5 1022.8 1022.3 0.0
27/08:30pm 15.5 13.2 5.7 52 4.7 NE 7 9 4 5 1022.6 1022.1 0.0
27/08:00pm 16.4 14.3 6.5 52 4.9 NE 7 9 4 5 1022.5 1022.0 0.0
27/07:30pm 16.8 14.6 6.3 50 5.2 NNE 7 9 4 5 1022.6 1022.1 0.0
27/07:00pm 17.4 16.2 6.6 49 5.4 N 2 7 1 4 1022.5 1022.0 0.0
27/06:30pm 18.6 16.2 7.1 47 5.9 NNE 9 13 5 7 1022.2 1021.8 0.0
27/06:00pm 19.7 16.3 7.8 46 6.2 NNE 15 15 8 8 1021.8 1021.4 0.0
27/05:30pm 21.1 18.4 7.3 41 7.2 NNE 11 15 6 8 1021.7 1021.3 0.0
27/05:00pm 23.8 20.8 7.8 36 8.5 N 13 17 7 9 1021.4 1021.0 0.0
27/04:30pm 25.1 22.2 8.1 34 9.2 NE 13 19 7 10 1021.4 1021.0 0.0
27/04:00pm 25.3 22.0 7.9 33 9.3 N 15 20 8 11 1021.4 1021.0 0.0
27/03:30pm 25.6 21.6 8.1 33 9.5 N 19 30 10 16 1021.4 1021.0 0.0
27/03:00pm 25.9 22.5 7.5 31 9.8 NE 15 22 8 12 1021.5 1021.1 0.0
27/02:30pm 25.1 21.6 8.6 35 9.0 NNE 17 20 9 11 1021.7 1021.3 0.0
27/02:00pm 24.9 22.5 7.1 32 9.4 N 9 19 5 10 1022.1 1021.7 0.0
27/01:30pm 26.0 24.2 9.4 35 9.2 NNE 9 15 5 8 1022.3 1021.9 0.0

Other Formats:

Comma delimited format used in spreadsheet applications
http://www.bom.gov.au/fwo/IDN60801/IDN60801.94715.axf

JavaScript Object Notation format (JSON) in row-major order
http://www.bom.gov.au/fwo/IDN60801/IDN60801.94715.json